Time;durP1;ratioP1;P1;durP2;ratioP2;P2;SDS_P1;SDS_P2;PMS_P1;PMS_P2;Temp;Humidity;BMP_temperature;BMP_pressure;BME280_temperature;BME280_humidity;BME280_pressure;Samples;Min_cycle;Max_cycle;Signal;HPM_P1;HPM_P2
2023/03/11 00:01:11;;;;;;;2.80;1.23;;;;;;;-0.39;100.00;100237.69;5051110;28;20040;-53
2023/03/11 00:03:37;;;;;;;4.38;1.98;;;;;;;-0.39;100.00;100248.94;5053377;28;20115;-52
2023/03/11 00:06:03;;;;;;;4.50;2.58;;;;;;;-0.38;100.00;100258.44;5043949;28;20041;-55
2023/03/11 00:08:29;;;;;;;10.45;4.07;;;;;;;-0.38;100.00;100258.44;5054854;28;20033;-54
2023/03/11 00:10:57;;;;;;;4.20;1.77;;;;;;;-0.39;100.00;100261.97;5051408;28;20048;-55
2023/03/11 00:13:23;;;;;;;11.52;2.70;;;;;;;-0.40;100.00;100260.31;5042946;28;20033;-53
2023/03/11 00:15:51;;;;;;;8.30;2.80;;;;;;;-0.46;100.00;100255.63;5052833;28;20039;-52
2023/03/11 00:18:17;;;;;;;4.15;1.80;;;;;;;-0.49;100.00;100253.25;5046801;28;20045;-54
2023/03/11 00:20:44;;;;;;;4.55;2.47;;;;;;;-0.57;100.00;100247.84;5045254;28;20044;-51
2023/03/11 00:23:11;;;;;;;4.72;2.15;;;;;;;-0.61;100.00;100249.06;5045463;28;20040;-52
2023/03/11 00:25:38;;;;;;;8.95;1.77;;;;;;;-0.68;100.00;100244.34;5046382;28;20701;-49
2023/03/11 00:28:06;;;;;;;5.25;2.78;;;;;;;-0.69;100.00;100252.28;5041855;28;20080;-55
2023/03/11 00:30:31;;;;;;;6.55;2.28;;;;;;;-0.71;100.00;100247.19;5043327;28;20424;-56
2023/03/11 00:32:58;;;;;;;3.45;1.35;;;;;;;-0.74;100.00;100244.03;5040128;28;20590;-55
2023/03/11 00:35:27;;;;;;;8.18;2.55;;;;;;;-0.79;100.00;100241.78;5048827;28;20481;-53
2023/03/11 00:37:55;;;;;;;2.28;1.10;;;;;;;-0.86;100.00;100237.19;5047802;28;20112;-53
2023/03/11 00:40:22;;;;;;;13.65;1.85;;;;;;;-0.91;100.00;100232.34;5042309;28;20076;-54
2023/03/11 00:42:48;;;;;;;3.90;1.77;;;;;;;-1.02;100.00;100235.81;5067791;28;20124;-54
2023/03/11 00:45:14;;;;;;;5.72;2.28;;;;;;;-1.02;100.00;100237.59;5041091;28;20037;-55
2023/03/11 00:47:39;;;;;;;5.63;2.20;;;;;;;-1.14;100.00;100247.19;5045792;28;20107;-54
2023/03/11 00:50:05;;;;;;;9.45;2.40;;;;;;;-1.09;100.00;100226.84;5053397;28;20089;-55
2023/03/11 00:52:31;;;;;;;7.20;1.35;;;;;;;-1.08;100.00;100230.25;5053646;28;20025;-51
2023/03/11 00:54:58;;;;;;;3.42;1.65;;;;;;;-1.13;100.00;100236.66;5050225;28;20035;-54
2023/03/11 00:57:24;;;;;;;4.13;1.00;;;;;;;-1.23;100.00;100240.13;5049304;28;20393;-52
2023/03/11 00:59:49;;;;;;;9.98;1.30;;;;;;;-1.25;100.00;100242.84;5055486;28;20044;-52
2023/03/11 01:02:15;;;;;;;4.53;1.80;;;;;;;-1.22;100.00;100247.78;5046647;28;20037;-53
2023/03/11 01:04:40;;;;;;;2.75;1.08;;;;;;;-1.20;100.00;100247.69;5049505;28;20032;-53
2023/03/11 01:07:05;;;;;;;6.20;1.35;;;;;;;-1.21;100.00;100257.28;5046906;28;20025;-52
2023/03/11 01:09:31;;;;;;;2.63;1.55;;;;;;;-1.25;100.00;100258.44;5048098;28;20060;-51
2023/03/11 01:11:56;;;;;;;1.73;0.98;;;;;;;-1.31;100.00;100258.94;5051430;28;20025;-51
2023/03/11 01:14:22;;;;;;;6.90;0.77;;;;;;;-1.27;100.00;100257.72;5054103;28;20032;-53
2023/03/11 01:16:48;;;;;;;6.88;1.85;;;;;;;-1.26;100.00;100251.59;5053507;28;20036;-54
2023/03/11 01:19:13;;;;;;;5.78;2.42;;;;;;;-1.27;100.00;100243.91;5050625;28;20497;-49
2023/03/11 01:21:39;;;;;;;6.97;0.90;;;;;;;-1.29;100.00;100243.19;5057920;28;20028;-52
2023/03/11 01:24:04;;;;;;;3.53;1.20;;;;;;;-1.32;100.00;100247.72;5052462;28;20269;-52
2023/03/11 01:26:29;;;;;;;10.68;1.67;;;;;;;-1.32;100.00;100242.50;5052844;28;20029;-54
2023/03/11 01:28:55;;;;;;;2.67;0.85;;;;;;;-1.38;100.00;100242.97;5044248;28;20029;-52
2023/03/11 01:31:20;;;;;;;2.45;1.17;;;;;;;-1.55;100.00;100246.03;5047065;28;20029;-54
2023/03/11 01:33:45;;;;;;;1.17;0.77;;;;;;;-1.50;100.00;100241.31;5052713;28;20021;-53
2023/03/11 01:36:11;;;;;;;5.30;0.70;;;;;;;-1.49;100.00;100234.38;5051084;28;20040;-55
2023/03/11 01:38:36;;;;;;;1.67;0.55;;;;;;;-1.48;100.00;100243.81;5049904;28;20110;-55
2023/03/11 01:41:01;;;;;;;1.65;0.63;;;;;;;-1.49;100.00;100242.16;5058474;28;20037;-50
2023/03/11 01:43:37;;;;;;;6.85;1.52;;;;;;;-1.51;100.00;100244.06;5052860;28;20031;-49
2023/03/11 01:46:05;;;;;;;1.45;0.73;;;;;;;-1.61;100.00;100241.34;5052923;28;20024;-55
2023/03/11 01:48:30;;;;;;;3.15;0.90;;;;;;;-1.67;100.00;100247.00;5052383;28;20025;-53
2023/03/11 01:50:56;;;;;;;2.72;1.48;;;;;;;-1.72;100.00;100249.13;5054623;28;20028;-51
2023/03/11 01:53:23;;;;;;;4.10;0.73;;;;;;;-1.76;100.00;100241.59;5051965;28;20051;-54
2023/03/11 01:55:49;;;;;;;5.72;1.38;;;;;;;-1.76;100.00;100238.13;5045247;28;20032;-49
2023/03/11 01:58:19;;;;;;;5.20;1.23;;;;;;;-1.85;100.00;100239.69;5052803;28;20028;-51
2023/03/11 02:00:45;;;;;;;3.60;0.65;;;;;;;-1.86;100.00;100245.81;5049837;28;20059;-54
2023/03/11 02:03:18;;;;;;;0.43;0.32;;;;;;;-1.88;100.00;100233.91;5050358;28;20041;-51
2023/03/11 02:05:44;;;;;;;3.00;1.63;;;;;;;-1.87;100.00;100232.94;5050786;28;20021;-53
2023/03/11 02:08:09;;;;;;;2.33;0.28;;;;;;;-1.91;100.00;100228.91;5048643;28;20035;-54
2023/03/11 02:10:39;;;;;;;2.45;1.13;;;;;;;-1.88;100.00;100231.28;5052798;28;20045;-52
2023/03/11 02:13:05;;;;;;;5.03;1.08;;;;;;;-1.91;100.00;100228.91;5050829;28;20032;-53
2023/03/11 02:15:30;;;;;;;1.92;0.85;;;;;;;-1.97;100.00;100225.81;5045243;28;20029;-53
2023/03/11 02:17:55;;;;;;;2.97;0.73;;;;;;;-1.97;100.00;100228.44;5050557;28;20067;-53
2023/03/11 02:20:27;;;;;;;7.60;1.95;;;;;;;-1.99;100.00;100222.53;5048768;28;20032;-52
2023/03/11 02:22:56;;;;;;;3.88;1.10;;;;;;;-2.04;100.00;100216.03;5053529;28;20036;-51
2023/03/11 02:25:41;;;;;;;3.90;1.00;;;;;;;-2.00;100.00;100207.06;5053082;28;20021;-50
2023/03/11 02:28:11;;;;;;;1.92;0.80;;;;;;;-1.99;100.00;100201.75;5039526;28;20685;-54
2023/03/11 02:30:39;;;;;;;1.48;0.68;;;;;;;-1.99;100.00;100206.94;5047580;28;20062;-55
2023/03/11 02:33:05;;;;;;;2.83;0.93;;;;;;;-1.97;100.00;100205.03;5052172;28;20131;-50
2023/03/11 02:35:30;;;;;;;5.72;0.70;;;;;;;-1.97;100.00;100205.03;5046411;28;20498;-51
2023/03/11 02:37:56;;;;;;;3.10;0.65;;;;;;;-1.99;100.00;100193.97;5043128;28;20124;-54
2023/03/11 02:40:26;;;;;;;1.38;0.90;;;;;;;-2.04;100.00;100198.69;5047893;28;20076;-51
2023/03/11 02:43:04;;;;;;;6.45;0.85;;;;;;;-2.03;100.00;100200.31;5042291;28;20032;-51
2023/03/11 02:45:30;;;;;;;2.58;0.57;;;;;;;-1.98;100.00;100199.97;5042254;28;20128;-51
2023/03/11 02:47:58;;;;;;;2.38;0.90;;;;;;;-2.08;100.00;100207.63;5046902;28;20443;-54
2023/03/11 02:50:25;;;;;;;1.10;0.88;;;;;;;-2.06;100.00;100203.16;5051441;28;20033;-52
2023/03/11 02:52:51;;;;;;;1.15;0.30;;;;;;;-2.10;100.00;100214.72;5053480;28;20103;-51
2023/03/11 02:55:19;;;;;;;2.03;1.23;;;;;;;-2.13;100.00;100209.75;5053170;28;20025;-53
2023/03/11 02:57:45;;;;;;;2.15;0.55;;;;;;;-2.10;100.00;100211.28;5045416;28;20458;-51
2023/03/11 03:00:14;;;;;;;1.52;0.60;;;;;;;-2.15;100.00;100206.44;5044138;28;20041;-55
2023/03/11 03:02:39;;;;;;;4.78;1.27;;;;;;;-2.24;100.00;100199.34;5049519;28;20021;-52
2023/03/11 03:05:06;;;;;;;0.75;0.40;;;;;;;-2.22;100.00;100198.31;5043650;28;20028;-55
2023/03/11 03:07:31;;;;;;;1.10;0.68;;;;;;;-2.27;100.00;100202.16;5046237;28;20025;-53
2023/03/11 03:09:57;;;;;;;1.58;0.65;;;;;;;-2.34;100.00;100199.22;5046988;28;20086;-49
2023/03/11 03:12:22;;;;;;;1.48;0.95;;;;;;;-2.37;100.00;100193.44;5047503;28;20530;-54
2023/03/11 03:14:47;;;;;;;2.17;0.70;;;;;;;-2.40;100.00;100184.09;5048499;28;20466;-54
2023/03/11 03:17:13;;;;;;;7.18;0.73;;;;;;;-2.42;100.00;100186.81;5039379;28;20163;-54
2023/03/11 03:19:38;;;;;;;1.75;0.73;;;;;;;-2.49;100.00;100183.00;5039605;28;20037;-53
2023/03/11 03:22:03;;;;;;;3.10;0.57;;;;;;;-2.48;100.00;100182.09;5046604;28;20029;-54
2023/03/11 03:24:29;;;;;;;2.30;0.63;;;;;;;-2.53;100.00;100185.94;5050253;28;20100;-51
2023/03/11 03:26:54;;;;;;;0.57;0.57;;;;;;;-2.59;100.00;100166.47;5048507;28;20386;-52
2023/03/11 03:29:20;;;;;;;1.17;0.45;;;;;;;-2.64;100.00;100168.56;5043410;28;20021;-52
2023/03/11 03:31:45;;;;;;;0.40;0.30;;;;;;;-2.66;100.00;100160.06;5041205;28;20044;-49
2023/03/11 03:34:11;;;;;;;0.65;0.32;;;;;;;-2.65;100.00;100161.72;5049691;28;20077;-54
2023/03/11 03:36:36;;;;;;;4.80;0.40;;;;;;;-2.63;100.00;100160.69;5053669;28;20487;-49
2023/03/11 03:39:03;;;;;;;2.08;0.17;;;;;;;-2.71;100.00;100168.22;5047934;28;20048;-50
2023/03/11 03:41:28;;;;;;;3.17;0.60;;;;;;;-2.72;100.00;100169.13;5048291;28;20488;-51
2023/03/11 03:43:54;;;;;;;2.20;0.52;;;;;;;-2.66;100.00;100175.63;5048083;28;20033;-53
2023/03/11 03:46:20;;;;;;;2.67;0.40;;;;;;;-2.70;100.00;100175.03;5044473;28;20226;-48
2023/03/11 03:48:46;;;;;;;7.35;0.30;;;;;;;-2.66;100.00;100178.22;5048722;28;20527;-50
2023/03/11 03:51:12;;;;;;;8.52;1.08;;;;;;;-2.66;100.00;100176.50;5042265;28;20042;-53
2023/03/11 03:53:38;;;;;;;1.08;0.35;;;;;;;-2.61;100.00;100189.09;5042079;28;20044;-52
2023/03/11 03:56:05;;;;;;;3.92;1.25;;;;;;;-2.58;100.00;100188.91;5048368;28;20029;-51
2023/03/11 03:58:30;;;;;;;1.25;0.30;;;;;;;-2.50;100.00;100183.97;5053285;28;20147;-49
2023/03/11 04:00:57;;;;;;;1.63;0.60;;;;;;;-2.38;100.00;100178.78;5043159;28;20468;-51
2023/03/11 04:03:24;;;;;;;0.47;0.30;;;;;;;-2.28;100.00;100175.38;5046380;28;20040;-51
2023/03/11 04:05:49;;;;;;;2.38;0.40;;;;;;;-2.23;100.00;100181.03;5042789;28;20549;-53
2023/03/11 04:08:15;;;;;;;7.13;0.80;;;;;;;-2.21;100.00;100183.53;5043313;28;20023;-53
2023/03/11 04:10:40;;;;;;;1.73;0.55;;;;;;;-2.23;100.00;100190.63;5045653;28;20389;-53
2023/03/11 04:13:05;;;;;;;6.32;0.68;;;;;;;-2.21;100.00;100186.97;5051002;28;20100;-54
2023/03/11 04:15:31;;;;;;;2.28;0.75;;;;;;;-2.10;100.00;100193.94;5048503;28;20112;-56
2023/03/11 04:17:56;;;;;;;3.78;0.30;;;;;;;-2.03;100.00;100189.13;5045558;28;20121;-50
2023/03/11 04:20:21;;;;;;;1.85;0.30;;;;;;;-1.94;100.00;100187.56;5051984;28;20052;-53
2023/03/11 04:22:47;;;;;;;4.85;0.20;;;;;;;-1.83;100.00;100187.59;5041848;28;20120;-54
2023/03/11 04:25:12;;;;;;;3.13;0.63;;;;;;;-1.77;100.00;100189.69;5050479;28;20030;-52
2023/03/11 04:27:41;;;;;;;2.40;0.20;;;;;;;-1.80;100.00;100201.16;5057687;28;20025;-54
2023/03/11 04:30:07;;;;;;;0.85;0.40;;;;;;;-1.78;100.00;100198.47;5056586;28;20033;-49
2023/03/11 04:32:33;;;;;;;5.53;0.75;;;;;;;-1.67;100.00;100205.41;5051517;28;20029;-54
2023/03/11 04:34:58;;;;;;;0.70;0.20;;;;;;;-1.68;100.00;100214.97;5055633;28;20039;-55
2023/03/11 04:37:27;;;;;;;1.75;0.30;;;;;;;-1.66;100.00;100218.28;5049513;28;20568;-53
2023/03/11 04:39:52;;;;;;;4.07;0.40;;;;;;;-1.68;100.00;100214.97;5059720;28;20458;-50
2023/03/11 04:42:18;;;;;;;1.65;0.40;;;;;;;-1.69;100.00;100218.53;5048957;28;20094;-54
2023/03/11 04:44:43;;;;;;;2.45;0.57;;;;;;;-1.72;100.00;100215.34;5051907;28;20063;-55
2023/03/11 04:47:09;;;;;;;4.60;0.52;;;;;;;-1.70;100.00;100227.28;5057199;28;20086;-50
2023/03/11 04:49:34;;;;;;;0.10;0.10;;;;;;;-1.70;100.00;100232.47;5054481;28;20576;-52
2023/03/11 04:51:59;;;;;;;2.17;0.63;;;;;;;-1.71;100.00;100223.00;5045484;28;20029;-51
2023/03/11 04:54:26;;;;;;;0.10;0.10;;;;;;;-1.71;100.00;100224.78;5045663;28;20045;-55
2023/03/11 04:56:51;;;;;;;0.85;0.13;;;;;;;-1.69;100.00;100231.53;5043745;28;20024;-53
2023/03/11 04:59:16;;;;;;;0.30;0.00;;;;;;;-1.65;100.00;100234.69;5046771;28;20033;-57
2023/03/11 05:01:42;;;;;;;2.40;0.35;;;;;;;-1.62;100.00;100229.28;5050075;28;20394;-55
2023/03/11 05:04:07;;;;;;;1.83;0.40;;;;;;;-1.60;100.00;100225.63;5048733;28;20490;-54
2023/03/11 05:06:32;;;;;;;1.75;0.55;;;;;;;-1.56;100.00;100227.03;5051095;28;20021;-51
2023/03/11 05:08:58;;;;;;;2.63;0.30;;;;;;;-1.52;100.00;100218.97;5051322;28;20071;-53
2023/03/11 05:11:23;;;;;;;0.70;0.10;;;;;;;-1.45;100.00;100226.19;5050384;28;20028;-50
2023/03/11 05:13:49;;;;;;;1.25;0.38;;;;;;;-1.40;100.00;100229.25;5048656;28;20040;-51
2023/03/11 05:16:14;;;;;;;0.52;0.52;;;;;;;-1.36;100.00;100232.47;5049579;28;20025;-55
2023/03/11 05:18:40;;;;;;;7.80;0.30;;;;;;;-1.29;100.00;100238.84;5051623;28;20131;-55
2023/03/11 05:21:05;;;;;;;1.83;0.57;;;;;;;-1.28;100.00;100239.66;5043879;28;20025;-52
2023/03/11 05:23:30;;;;;;;2.38;0.45;;;;;;;-1.21;100.00;100246.03;5048772;28;20067;-53
2023/03/11 05:25:56;;;;;;;6.82;0.22;;;;;;;-1.16;100.00;100244.72;5051843;28;20485;-52
2023/03/11 05:28:21;;;;;;;2.90;0.40;;;;;;;-1.18;100.00;100248.41;5052570;28;20511;-54
2023/03/11 05:30:46;;;;;;;1.60;0.08;;;;;;;-1.18;100.00;100257.03;5050326;28;20107;-52
2023/03/11 05:33:12;;;;;;;1.10;0.30;;;;;;;-1.15;100.00;100264.59;5050060;28;20052;-52
2023/03/11 05:35:37;;;;;;;4.50;0.25;;;;;;;-1.12;100.00;100256.53;5046722;28;20036;-50
2023/03/11 05:38:02;;;;;;;1.00;0.25;;;;;;;-1.07;100.00;100252.75;5044451;28;20540;-54
2023/03/11 05:40:28;;;;;;;1.10;0.30;;;;;;;-1.04;100.00;100252.50;5050007;28;20104;-55
2023/03/11 05:42:53;;;;;;;1.35;0.50;;;;;;;-1.00;100.00;100261.72;5052171;28;20021;-52
2023/03/11 05:45:19;;;;;;;1.10;0.17;;;;;;;-1.01;100.00;100249.66;5058265;28;20047;-52
2023/03/11 05:47:44;;;;;;;2.38;0.22;;;;;;;-1.05;100.00;100259.47;5045757;28;20452;-55
2023/03/11 05:50:11;;;;;;;2.08;0.40;;;;;;;-1.06;100.00;100257.81;5043880;28;20401;-52
2023/03/11 05:52:36;;;;;;;0.95;0.30;;;;;;;-1.09;100.00;100242.44;5051987;28;20075;-54
2023/03/11 05:55:02;;;;;;;3.40;0.43;;;;;;;-1.06;100.00;100229.19;5050347;28;20487;-53
2023/03/11 05:57:27;;;;;;;1.38;0.00;;;;;;;-1.08;100.00;100225.06;5055257;28;20103;-52
2023/03/11 05:59:53;;;;;;;1.70;0.32;;;;;;;-1.07;100.00;100224.13;5055431;28;20489;-55
2023/03/11 06:02:19;;;;;;;4.60;0.20;;;;;;;-1.03;100.00;100235.94;5052384;28;20403;-54
2023/03/11 06:04:45;;;;;;;0.20;0.08;;;;;;;-0.98;100.00;100233.78;5041490;28;20028;-56
2023/03/11 06:07:11;;;;;;;2.45;0.20;;;;;;;-0.95;100.00;100241.38;5050257;28;20052;-54
2023/03/11 06:09:37;;;;;;;0.65;0.20;;;;;;;-0.97;100.00;100261.47;5064702;28;20040;-55
2023/03/11 06:12:03;;;;;;;3.95;0.30;;;;;;;-0.97;100.00;100258.88;5048652;28;20029;-56
2023/03/11 06:14:30;;;;;;;1.63;0.22;;;;;;;-0.94;100.00;100250.81;5054700;28;20126;-50
2023/03/11 06:16:57;;;;;;;1.17;0.30;;;;;;;-0.91;100.00;100258.38;5048370;28;20052;-52
2023/03/11 06:19:22;;;;;;;6.53;0.35;;;;;;;-0.82;100.00;100262.03;5052426;28;20473;-52
2023/03/11 06:21:47;;;;;;;1.30;0.35;;;;;;;-0.78;100.00;100255.63;5042375;28;20037;-54
2023/03/11 06:24:13;;;;;;;2.30;0.50;;;;;;;-0.74;100.00;100260.47;5049126;28;20032;-53
2023/03/11 06:26:38;;;;;;;1.67;0.77;;;;;;;-0.73;100.00;100254.28;5047869;28;20036;-55
2023/03/11 06:29:03;;;;;;;1.00;0.82;;;;;;;-0.73;100.00;100256.06;5048932;28;20478;-51
2023/03/11 06:31:30;;;;;;;1.50;0.63;;;;;;;-0.73;100.00;100264.72;5044908;28;20489;-54
2023/03/11 06:33:56;;;;;;;1.17;0.38;;;;;;;-0.72;100.00;100265.56;5050005;28;20390;-52
2023/03/11 06:36:22;;;;;;;0.32;0.32;;;;;;;-0.79;100.00;100273.03;5046853;28;20036;-54
2023/03/11 06:38:51;;;;;;;2.70;0.57;;;;;;;-0.82;100.00;100278.47;5049011;28;20061;-54
2023/03/11 06:41:16;;;;;;;1.55;0.70;;;;;;;-0.78;100.00;100289.47;5046917;28;20426;-55
2023/03/11 06:43:41;;;;;;;7.50;0.50;;;;;;;-0.70;100.00;100300.09;5046846;28;20040;-52
2023/03/11 06:46:11;;;;;;;2.67;0.77;;;;;;;-0.67;100.00;100285.06;5044109;28;20434;-55
2023/03/11 06:48:37;;;;;;;0.55;0.00;;;;;;;-0.59;100.00;100296.66;5049423;28;20083;-52
2023/03/11 06:51:03;;;;;;;1.95;0.10;;;;;;;-0.55;100.00;100301.47;5046964;28;20033;-53
2023/03/11 06:53:29;;;;;;;5.38;1.88;;;;;;;-0.55;100.00;100298.84;5045095;28;20041;-53
2023/03/11 06:55:58;;;;;;;3.65;0.77;;;;;;;-0.46;100.00;100299.91;5045761;28;20052;-53
2023/03/11 06:58:24;;;;;;;1.40;0.20;;;;;;;-0.38;100.00;100305.31;5046715;28;20386;-54
2023/03/11 07:00:49;;;;;;;1.33;0.47;;;;;;;-0.41;100.00;100315.16;5043245;28;20056;-53
2023/03/11 07:03:15;;;;;;;0.82;0.30;;;;;;;-0.34;100.00;100314.53;5051681;28;20024;-50
2023/03/11 07:05:40;;;;;;;2.58;0.38;;;;;;;-0.25;100.00;100320.78;5041361;28;20043;-56
2023/03/11 07:08:05;;;;;;;6.70;0.40;;;;;;;-0.23;100.00;100322.31;5039609;28;20036;-53
2023/03/11 07:10:31;;;;;;;1.40;0.35;;;;;;;-0.19;100.00;100320.28;5043029;28;20051;-53
2023/03/11 07:12:56;;;;;;;3.88;0.35;;;;;;;-0.12;100.00;100315.41;5037700;28;20511;-53
2023/03/11 07:15:21;;;;;;;2.00;0.38;;;;;;;0.00;100.00;100303.97;5037429;28;20379;-56
2023/03/11 07:17:47;;;;;;;0.75;0.30;;;;;;;0.01;100.00;100296.97;5037843;28;20433;-53
2023/03/11 07:20:12;;;;;;;1.27;0.50;;;;;;;0.03;100.00;100300.25;5040696;28;20036;-53
2023/03/11 07:22:37;;;;;;;2.20;0.35;;;;;;;0.05;100.00;100293.97;5038056;28;20063;-55
2023/03/11 07:25:03;;;;;;;0.43;0.10;;;;;;;0.06;100.00;100297.41;5044679;28;20025;-54
2023/03/11 07:27:28;;;;;;;3.15;0.30;;;;;;;0.09;100.00;100294.53;5044236;28;20115;-52
2023/03/11 07:29:54;;;;;;;1.13;0.32;;;;;;;0.17;100.00;100299.94;5039445;28;20098;-52
2023/03/11 07:32:19;;;;;;;1.75;0.68;;;;;;;0.23;100.00;100296.81;5043192;28;20061;-55
2023/03/11 07:34:44;;;;;;;0.75;0.32;;;;;;;0.30;100.00;100284.91;5044888;28;20044;-54
2023/03/11 07:37:10;;;;;;;0.25;0.22;;;;;;;0.41;100.00;100284.00;5045456;28;20534;-55
2023/03/11 07:39:35;;;;;;;0.52;0.20;;;;;;;0.50;100.00;100293.66;5040101;28;20020;-53
2023/03/11 07:42:00;;;;;;;2.90;0.60;;;;;;;0.62;100.00;100303.06;5040595;28;20036;-53
2023/03/11 07:44:26;;;;;;;0.98;0.85;;;;;;;0.74;100.00;100310.78;5045532;28;20033;-57
2023/03/11 07:46:51;;;;;;;2.08;1.00;;;;;;;0.87;100.00;100311.38;5041802;28;20043;-55
2023/03/11 07:49:16;;;;;;;1.92;0.10;;;;;;;0.89;100.00;100306.84;5044126;28;20096;-54
2023/03/11 07:51:42;;;;;;;6.30;0.30;;;;;;;0.96;100.00;100320.22;5037959;28;20039;-53
2023/03/11 07:54:10;;;;;;;1.02;0.80;;;;;;;0.96;100.00;100321.03;5044347;28;20410;-55
2023/03/11 07:56:36;;;;;;;0.28;0.10;;;;;;;1.08;100.00;100316.53;5034957;28;20057;-54
2023/03/11 07:59:03;;;;;;;1.23;0.60;;;;;;;1.14;100.00;100307.34;5048494;28;20115;-56
2023/03/11 08:01:34;;;;;;;1.65;0.50;;;;;;;1.19;100.00;100311.22;5049718;28;20036;-55
2023/03/11 08:04:01;;;;;;;0.77;0.43;;;;;;;1.25;100.00;100302.00;5046313;28;20025;-57
2023/03/11 08:06:30;;;;;;;1.45;1.35;;;;;;;1.34;100.00;100311.63;5045171;28;20025;-56
2023/03/11 08:08:56;;;;;;;3.47;1.50;;;;;;;1.40;100.00;100316.31;5044476;28;20021;-52
2023/03/11 08:11:22;;;;;;;3.83;0.20;;;;;;;1.50;100.00;100304.09;5043310;28;20064;-56
2023/03/11 08:13:48;;;;;;;6.53;0.32;;;;;;;1.55;100.00;100310.69;5042456;28;20581;-56
2023/03/11 08:16:16;;;;;;;2.38;0.52;;;;;;;1.52;100.00;100312.63;5039464;28;20034;-56
2023/03/11 08:18:42;;;;;;;2.38;1.05;;;;;;;1.53;100.00;100303.81;5043719;28;20440;-54
2023/03/11 08:21:11;;;;;;;5.40;0.45;;;;;;;1.60;100.00;100305.88;5042569;28;20151;-56
2023/03/11 08:23:37;;;;;;;2.20;0.55;;;;;;;1.64;100.00;100310.69;5041752;28;20021;-56
2023/03/11 08:26:07;;;;;;;2.42;0.82;;;;;;;1.76;100.00;100298.31;5047092;28;20032;-53
2023/03/11 08:28:33;;;;;;;2.17;0.52;;;;;;;1.94;100.00;100301.88;5049167;28;20587;-56
2023/03/11 08:30:58;;;;;;;5.35;0.65;;;;;;;2.08;100.00;100299.78;5049483;28;20033;-55
2023/03/11 08:33:24;;;;;;;2.05;0.63;;;;;;;2.31;100.00;100297.69;5039719;28;20032;-57
2023/03/11 08:35:49;;;;;;;2.17;0.70;;;;;;;2.56;100.00;100298.84;5045343;28;20029;-51
2023/03/11 08:38:14;;;;;;;2.90;0.40;;;;;;;2.69;100.00;100301.16;5046397;28;20033;-51
2023/03/11 08:40:40;;;;;;;2.55;0.32;;;;;;;2.86;100.00;100304.78;5049784;28;20032;-51
2023/03/11 08:43:06;;;;;;;4.90;0.93;;;;;;;3.16;100.00;100301.84;5048648;28;20029;-54
2023/03/11 08:45:31;;;;;;;3.47;1.40;;;;;;;3.47;100.00;100298.91;5048929;28;20094;-51
2023/03/11 08:47:57;;;;;;;2.00;0.60;;;;;;;3.62;100.00;100286.09;5047578;28;20479;-49
2023/03/11 08:50:23;;;;;;;5.47;0.80;;;;;;;3.66;100.00;100288.25;5048015;28;20037;-55
2023/03/11 08:52:48;;;;;;;3.70;0.68;;;;;;;3.76;100.00;100303.09;5046832;28;20025;-54
2023/03/11 08:55:17;;;;;;;6.85;0.52;;;;;;;3.84;100.00;100306.59;5040964;28;20021;-52
2023/03/11 08:57:43;;;;;;;6.50;0.57;;;;;;;3.96;100.00;100309.81;5044264;28;20090;-54
2023/03/11 09:00:10;;;;;;;1.05;0.20;;;;;;;4.02;100.00;100314.44;5046609;28;20038;-52
2023/03/11 09:02:35;;;;;;;1.25;0.35;;;;;;;4.07;100.00;100300.88;5042963;28;20037;-55
2023/03/11 09:05:01;;;;;;;4.78;0.88;;;;;;;4.19;100.00;100310.13;5043057;28;20032;-53
2023/03/11 09:07:26;;;;;;;2.83;0.45;;;;;;;4.30;100.00;100306.44;5043426;28;20497;-53
2023/03/11 09:09:53;;;;;;;11.80;1.25;;;;;;;4.33;100.00;100317.44;5044338;28;20142;-55
2023/03/11 09:12:19;;;;;;;1.30;0.50;;;;;;;4.43;100.00;100314.72;5043516;28;20139;-52
2023/03/11 09:14:44;;;;;;;1.20;0.52;;;;;;;4.54;100.00;100314.47;5041568;28;20048;-51
2023/03/11 09:17:10;;;;;;;2.25;0.30;;;;;;;4.67;100.00;100314.00;5045475;28;20051;-53
2023/03/11 09:19:37;;;;;;;1.02;0.30;;;;;;;4.80;100.00;100321.47;5047201;28;20116;-53
2023/03/11 09:22:03;;;;;;;1.42;0.30;;;;;;;4.88;100.00;100316.28;5049634;28;20486;-54
2023/03/11 09:24:32;;;;;;;2.60;0.63;;;;;;;4.88;100.00;100303.13;5043950;28;20124;-49
2023/03/11 09:26:58;;;;;;;5.60;0.30;;;;;;;4.91;100.00;100278.34;5044666;28;20119;-50
2023/03/11 09:29:23;;;;;;;3.03;0.80;;;;;;;5.00;100.00;100277.38;5046759;28;20139;-50
2023/03/11 09:31:48;;;;;;;2.30;0.40;;;;;;;5.10;100.00;100283.31;5046195;28;20043;-48
2023/03/11 09:34:14;;;;;;;1.98;0.50;;;;;;;5.23;100.00;100283.69;5042568;28;20037;-49
2023/03/11 09:36:42;;;;;;;6.03;0.57;;;;;;;5.41;100.00;100286.19;5042140;28;20078;-52
2023/03/11 09:39:08;;;;;;;5.93;0.20;;;;;;;5.65;100.00;100281.94;5046508;28;20025;-54
2023/03/11 09:41:45;;;;;;;1.98;0.17;;;;;;;5.63;100.00;100279.47;5046566;28;20503;-51
2023/03/11 09:44:20;;;;;;;4.03;0.47;;;;;;;5.84;100.00;100271.09;5046658;28;20108;-54
2023/03/11 09:47:04;;;;;;;2.55;0.60;;;;;;;5.99;100.00;100278.34;5043886;28;20047;-49
2023/03/11 09:49:32;;;;;;;5.95;0.90;;;;;;;6.02;100.00;100278.03;5043573;28;20040;-51
2023/03/11 09:52:13;;;;;;;3.38;0.40;;;;;;;6.15;100.00;100274.88;5045103;28;20033;-53
2023/03/11 09:54:46;;;;;;;8.40;0.40;;;;;;;6.29;100.00;100277.63;5042232;28;20033;-49
2023/03/11 09:57:18;;;;;;;3.13;0.13;;;;;;;6.44;100.00;100269.88;5038160;28;20041;-48
2023/03/11 09:59:45;;;;;;;1.05;0.80;;;;;;;6.65;100.00;100269.31;5043618;28;20111;-51
2023/03/11 10:02:18;;;;;;;11.88;1.75;;;;;;;6.85;100.00;100275.00;5043218;28;20035;-52
2023/03/11 10:04:52;;;;;;;5.47;0.77;;;;;;;6.94;100.00;100270.50;5047605;28;20028;-49
2023/03/11 10:07:24;;;;;;;8.50;0.40;;;;;;;6.88;100.00;100256.19;5044099;28;20041;-51
2023/03/11 10:09:56;;;;;;;1.60;0.00;;;;;;;6.98;100.00;100259.44;5045450;28;20407;-49
2023/03/11 10:12:46;;;;;;;0.80;0.00;;;;;;;7.09;100.00;100244.22;5043069;28;20024;-53
2023/03/11 10:15:19;;;;;;;2.33;0.25;;;;;;;7.26;100.00;100242.31;5045612;28;20037;-52
2023/03/11 10:18:21;;;;;;;1.38;0.30;;;;;;;7.55;100.00;100242.41;5046262;28;20171;-50
2023/03/11 10:21:13;;;;;;;1.88;0.30;;;;;;;7.56;100.00;100248.50;5041688;28;20036;-50
2023/03/11 10:24:27;;;;;;;1.05;0.00;;;;;;;7.59;100.00;100246.34;5042221;28;20086;-53
2023/03/11 10:26:58;;;;;;;2.00;0.15;;;;;;;7.61;100.00;100236.41;5040237;28;20041;-52
2023/03/11 10:29:31;;;;;;;2.92;0.28;;;;;;;7.69;100.00;100246.09;5042762;28;20035;-52
2023/03/11 10:32:01;;;;;;;1.15;0.55;;;;;;;7.79;100.00;100248.50;5046564;28;20072;-52
2023/03/11 10:34:37;;;;;;;2.92;0.35;;;;;;;7.81;100.00;100243.84;5047081;28;20394;-52
2023/03/11 10:37:31;;;;;;;0.70;0.00;;;;;;;7.99;100.00;100240.91;5048184;28;20531;-53
2023/03/11 10:40:04;;;;;;;14.55;5.03;;;;;;;8.08;100.00;100238.00;5046784;28;20078;-55
2023/03/11 10:42:32;;;;;;;3.60;0.93;;;;;;;8.21;100.00;100241.81;5040815;28;20025;-52
2023/03/11 10:44:58;;;;;;;4.35;0.60;;;;;;;8.50;100.00;100238.41;5040675;28;20164;-51
2023/03/11 10:47:24;;;;;;;9.25;2.13;;;;;;;8.74;100.00;100232.81;5041196;28;20619;-52
2023/03/11 10:49:53;;;;;;;14.25;3.08;;;;;;;8.81;100.00;100227.59;5043481;28;20041;-54
2023/03/11 10:52:19;;;;;;;10.52;1.05;;;;;;;8.76;100.00;100227.34;5042845;28;20066;-49
2023/03/11 10:54:47;;;;;;;1.38;0.93;;;;;;;8.86;100.00;100225.22;5043461;28;20782;-52
2023/03/11 10:57:25;;;;;;;9.07;3.08;;;;;;;8.81;100.00;100224.97;5044202;28;20043;-51
2023/03/11 10:59:53;;;;;;;12.63;4.57;;;;;;;8.68;100.00;100216.88;5045215;28;20033;-49
2023/03/11 11:02:28;;;;;;;18.35;5.90;;;;;;;8.59;100.00;100221.44;5039974;28;20027;-56
2023/03/11 11:05:02;;;;;;;9.60;4.38;;;;;;;8.86;100.00;100216.47;5041450;28;20025;-51
2023/03/11 11:07:30;;;;;;;9.68;1.67;;;;;;;9.03;100.00;100214.41;5041263;28;20044;-49
2023/03/11 11:10:23;;;;;;;10.55;2.42;;;;;;;9.12;100.00;100213.31;5042324;28;20064;-49
2023/03/11 11:12:49;;;;;;;7.72;1.45;;;;;;;9.07;100.00;100213.03;5028922;28;20072;-49
2023/03/11 11:15:22;;;;;;;4.18;1.20;;;;;;;9.13;100.00;100217.56;5016719;28;20056;-48
2023/03/11 11:17:49;;;;;;;3.30;1.10;;;;;;;9.24;100.00;100206.50;5031142;28;20135;-51
2023/03/11 11:20:18;;;;;;;2.15;0.68;;;;;;;9.41;100.00;100204.41;5040219;28;20049;-49